Etusivu
METAR-TAF:

METAR-TAF

Lentoasemat :

Indianapolis, Indiana, Yhdysvallat

Leveyspiiri: 39-49-30N, Pituuspiiri: 086-17-45W, korkeus merenpinnasta: 250 m

Tämänhetkinen sää

Tämä raportti tehtiin 12 minuuttia sitten, kello 04.53 UTC
Tuuli 8 kn pohjoisesta
Lämpötila 7°C
Kosteus 81%
Ilmanpaine 1019 hPa
Näkyvyys: 16.1 km
Hajonneita pilviä 1200 ft:n korkeudessa
Pilvistä 2100 ft:n korkeudessa

METAR: KEYE 050453Z AUTO 36008KT 10SM BKN012 OVC021 07/04 A3009 RMK AO2 SLP190 T00670039 401560067

Aika: 01:05 (05:05 UTC)


TAF: puuttuu

Säähavainnot ja -ennusteet yli 4000 lentoasemalta (METAR- ja TAF-raportit).

Käytössä olevat sääasemat on merkitty karttaan keltaisilla ja punaisilla pisteillä.

Aseta hiiri pisteen päälle nähdäksesi sääaseman nimen.

Klikkaa sitten nähdäksesi säähavainnot ja -ennusteet.

Kartan vaihtaminen: klikkaa mustalla rastilla varustettuja vihreitä pisteitä, niin voit zoomata sisään; viivalla varustettua vihreää pistettä, niin voit zoomata ulos tai vihreitä nuolia, niin pääset viereisille kartoille.


METAR-TAF: